KR-0453 weather

Dadae-dong Heliport
Busan, Busan Gwang'yeogsi, South Korea

Public forecast

Using degrees Celsius for public forecast. Weather courtesy of forecast.io.

Closest aviation weather report (METAR) to Dadae-dong Heliport

Closest report is Gimhae International Airport, 7.5 nm (13.9 km) NNW. Retrieved 2020/01/27 02:00 UTC (37 minutes ago):

RKPK 270200Z 06019G29KT 9000 -RA BKN020 OVC040 08/05 Q1016

Closest aviation forecast (TAF) to Dadae-dong Heliport

Closest forecast is Gimhae International Airport, 7.5 nm (13.9 km) NNW. Retrieved 2020-01-27 00:00 UTC (3 hours ago):

TAF RKPK 262300Z 2700/2806 06020G30KT 4800 -RA BR BKN015 OVC030 TX11/2706Z TN06/2721Z BECMG 2709/2710 03015G25KT BECMG 2718/2719 03012KT BECMG 2800/2801 03010KT 9999 NSW SCT015 BKN030